Time;durP1;ratioP1;P1;durP2;ratioP2;P2;SDS_P1;SDS_P2;PMS_P1;PMS_P2;Temp;Humidity;BMP_temperature;BMP_pressure;BME280_temperature;BME280_humidity;BME280_pressure;Samples;Min_cycle;Max_cycle;Signal;HPM_P1;HPM_P2
2022/10/12 00:00:50;;;;;;;7.63;5.30;;;;;;;;;;5070101;28;20241;-39
2022/10/12 00:03:17;;;;;;;10.80;6.60;;;;;;;;;;5061578;28;20205;-39
2022/10/12 00:05:44;;;;;;;13.00;6.30;;;;;;;;;;5064917;28;20251;-36
2022/10/12 00:08:12;;;;;;;9.50;6.53;;;;;;;;;;5069952;28;20210;-38
2022/10/12 00:10:42;;;;;;;8.80;5.83;;;;;;;;;;5069887;28;20217;-42
2022/10/12 00:13:10;;;;;;;8.37;6.03;;;;;;;;;;5062990;28;20212;-40
2022/10/12 00:15:38;;;;;;;9.23;6.33;;;;;;;;;;5067626;28;20225;-34
2022/10/12 00:18:05;;;;;;;9.60;5.37;;;;;;;;;;5065356;28;20217;-40
2022/10/12 00:20:32;;;;;;;8.73;5.77;;;;;;;;;;5069268;28;20221;-36
2022/10/12 00:22:59;;;;;;;8.53;5.50;;;;;;;;;;5069560;28;20194;-38
2022/10/12 00:25:26;;;;;;;11.70;6.17;;;;;;;;;;5069552;28;20225;-39
2022/10/12 00:27:55;;;;;;;6.90;5.00;;;;;;;;;;5059292;28;20266;-39
2022/10/12 00:30:22;;;;;;;9.10;6.17;;;;;;;;;;5063811;28;20230;-41
2022/10/12 00:32:49;;;;;;;8.07;5.97;;;;;;;;;;5065461;28;20421;-37
2022/10/12 00:35:16;;;;;;;10.03;6.03;;;;;;;;;;5065253;28;20332;-38
2022/10/12 00:37:44;;;;;;;14.17;6.77;;;;;;;;;;5068742;28;20214;-38
2022/10/12 00:40:11;;;;;;;8.67;6.03;;;;;;;;;;5068156;28;20248;-37
2022/10/12 00:42:38;;;;;;;7.70;6.83;;;;;;;;;;5060302;28;20203;-42
2022/10/12 00:45:10;;;;;;;11.30;6.27;;;;;;;;;;5068440;28;20228;-39
2022/10/12 00:47:38;;;;;;;9.53;6.50;;;;;;;;;;5065350;28;20202;-37
2022/10/12 00:50:07;;;;;;;13.70;6.93;;;;;;;;;;5059197;28;20229;-40
2022/10/12 00:52:37;;;;;;;8.83;6.37;;;;;;;;;;5069125;28;20197;-34
2022/10/12 00:55:05;;;;;;;9.40;6.00;;;;;;;;;;5069222;28;20320;-40
2022/10/12 00:57:32;;;;;;;6.37;5.17;;;;;;;;;;5057572;28;20219;-39
2022/10/12 01:00:01;;;;;;;8.63;5.77;;;;;;;;;;5066796;28;20250;-38
2022/10/12 01:02:31;;;;;;;6.40;5.27;;;;;;;;;;5055332;28;20198;-42
2022/10/12 01:04:58;;;;;;;6.87;5.17;;;;;;;;;;5054862;28;20193;-35
2022/10/12 01:07:25;;;;;;;10.70;6.03;;;;;;;;;;5069369;28;20207;-41
2022/10/12 01:09:53;;;;;;;12.40;6.93;;;;;;;;;;5068926;28;20225;-40
2022/10/12 01:12:20;;;;;;;7.87;5.70;;;;;;;;;;5058323;28;20211;-44
2022/10/12 01:14:48;;;;;;;8.10;5.77;;;;;;;;;;5062194;28;20292;-37
2022/10/12 01:17:22;;;;;;;10.33;5.87;;;;;;;;;;5059637;28;20206;-38
2022/10/12 01:20:07;;;;;;;8.63;6.07;;;;;;;;;;5062262;28;20221;-38
2022/10/12 01:22:40;;;;;;;10.03;5.97;;;;;;;;;;5068883;28;20202;-41
2022/10/12 01:25:14;;;;;;;9.80;6.37;;;;;;;;;;5064799;28;20216;-36
2022/10/12 01:27:44;;;;;;;7.37;5.90;;;;;;;;;;5055388;28;20201;-35
2022/10/12 01:30:17;;;;;;;10.13;6.10;;;;;;;;;;5064004;28;20738;-43
2022/10/12 01:32:50;;;;;;;8.70;6.73;;;;;;;;;;5063681;28;20203;-39
2022/10/12 01:35:19;;;;;;;12.43;6.30;;;;;;;;;;5065613;28;20226;-40
2022/10/12 01:37:49;;;;;;;8.07;5.73;;;;;;;;;;5068428;28;20244;-39
2022/10/12 01:40:20;;;;;;;8.27;5.50;;;;;;;;;;5068434;28;20317;-41
2022/10/12 01:42:48;;;;;;;12.20;6.70;;;;;;;;;;5059394;28;20209;-41
2022/10/12 01:45:18;;;;;;;11.60;6.63;;;;;;;;;;5065951;28;20210;-39
2022/10/12 01:47:47;;;;;;;8.80;6.33;;;;;;;;;;5061583;28;20198;-35
2022/10/12 01:50:15;;;;;;;8.83;6.40;;;;;;;;;;5058235;28;20232;-39
2022/10/12 01:52:47;;;;;;;10.50;6.13;;;;;;;;;;5068538;28;20204;-36
2022/10/12 01:55:20;;;;;;;10.73;6.33;;;;;;;;;;5069412;28;20237;-39
2022/10/12 01:57:54;;;;;;;7.07;6.00;;;;;;;;;;5066390;28;20217;-35
2022/10/12 02:00:22;;;;;;;8.17;6.87;;;;;;;;;;5067519;28;20233;-36
2022/10/12 02:02:53;;;;;;;6.20;5.33;;;;;;;;;;5067294;28;20205;-41
2022/10/12 02:05:24;;;;;;;6.87;5.47;;;;;;;;;;5063273;28;20310;-42
2022/10/12 02:07:53;;;;;;;12.37;6.50;;;;;;;;;;5072042;28;20205;-40
2022/10/12 02:10:24;;;;;;;8.27;5.37;;;;;;;;;;5072452;28;20251;-39
2022/10/12 02:12:53;;;;;;;9.63;5.67;;;;;;;;;;5068607;28;20217;-37
2022/10/12 02:15:21;;;;;;;8.17;5.97;;;;;;;;;;5071298;28;20296;-37
2022/10/12 02:17:52;;;;;;;8.87;5.83;;;;;;;;;;5066620;28;20303;-38
2022/10/12 02:20:20;;;;;;;9.77;6.37;;;;;;;;;;5062006;28;20225;-41
2022/10/12 02:22:49;;;;;;;9.13;5.93;;;;;;;;;;5066980;28;20217;-36
2022/10/12 02:25:19;;;;;;;7.17;5.50;;;;;;;;;;5072239;28;20209;-39
2022/10/12 02:27:49;;;;;;;6.10;5.50;;;;;;;;;;5055981;28;20211;-36
2022/10/12 02:30:16;;;;;;;8.90;6.27;;;;;;;;;;5071218;28;20274;-37
2022/10/12 02:32:48;;;;;;;8.67;6.13;;;;;;;;;;5064432;28;20202;-33
2022/10/12 02:35:19;;;;;;;8.53;5.30;;;;;;;;;;5061283;28;20262;-37
2022/10/12 02:37:49;;;;;;;8.43;6.27;;;;;;;;;;5071737;28;20247;-41
2022/10/12 02:40:18;;;;;;;8.70;6.07;;;;;;;;;;5072403;28;20240;-40
2022/10/12 02:42:49;;;;;;;11.83;6.37;;;;;;;;;;5060120;28;20206;-44
2022/10/12 02:45:17;;;;;;;8.40;6.13;;;;;;;;;;5069574;28;20217;-38
2022/10/12 02:47:46;;;;;;;7.73;5.17;;;;;;;;;;5069472;28;20273;-40
2022/10/12 02:50:13;;;;;;;8.50;5.03;;;;;;;;;;5071170;28;20236;-38
2022/10/12 02:52:42;;;;;;;6.73;5.80;;;;;;;;;;5071418;28;20206;-35
2022/10/12 02:55:09;;;;;;;5.13;4.63;;;;;;;;;;5070838;28;20245;-39
2022/10/12 02:57:36;;;;;;;8.57;5.97;;;;;;;;;;5065673;28;20235;-38
2022/10/12 03:00:03;;;;;;;12.90;6.80;;;;;;;;;;5065868;28;20230;-42
2022/10/12 03:02:31;;;;;;;11.77;6.23;;;;;;;;;;5067691;28;20264;-39
2022/10/12 03:04:58;;;;;;;7.53;5.40;;;;;;;;;;5062641;28;20205;-38
2022/10/12 03:07:25;;;;;;;8.07;5.67;;;;;;;;;;5070472;28;20213;-36
2022/10/12 03:09:54;;;;;;;8.70;6.50;;;;;;;;;;5070892;28;20275;-39
2022/10/12 03:12:21;;;;;;;13.00;6.37;;;;;;;;;;5064173;28;20214;-43
2022/10/12 03:14:48;;;;;;;6.13;5.13;;;;;;;;;;5069729;28;20216;-40
2022/10/12 03:17:15;;;;;;;9.57;5.80;;;;;;;;;;5067444;28;20320;-37
2022/10/12 03:19:42;;;;;;;8.07;5.67;;;;;;;;;;5059586;28;20225;-39
2022/10/12 03:22:09;;;;;;;6.27;5.30;;;;;;;;;;5070503;28;20299;-40
2022/10/12 03:24:36;;;;;;;10.97;5.03;;;;;;;;;;5067723;28;20653;-36
2022/10/12 03:27:05;;;;;;;16.50;6.50;;;;;;;;;;5056795;28;20198;-42
2022/10/12 03:29:32;;;;;;;10.17;5.50;;;;;;;;;;5070337;28;20209;-40
2022/10/12 03:31:59;;;;;;;7.87;6.00;;;;;;;;;;5068897;28;20286;-38
2022/10/12 03:34:26;;;;;;;8.90;6.50;;;;;;;;;;5058435;28;20202;-38
2022/10/12 03:36:53;;;;;;;8.20;6.00;;;;;;;;;;5069085;28;20224;-42
2022/10/12 03:39:20;;;;;;;13.47;7.13;;;;;;;;;;5070407;28;20210;-37
2022/10/12 03:44:20;;;;;;;8.23;5.80;;;;;;;;;;5069020;28;20240;-38
2022/10/12 03:46:47;;;;;;;9.37;6.13;;;;;;;;;;5070001;28;20206;-40
2022/10/12 03:49:14;;;;;;;10.80;5.60;;;;;;;;;;5056349;28;20212;-34
2022/10/12 03:51:41;;;;;;;9.27;5.90;;;;;;;;;;5067966;28;20222;-40
2022/10/12 03:54:08;;;;;;;10.90;6.97;;;;;;;;;;5070125;28;20304;-36
2022/10/12 03:56:36;;;;;;;8.67;5.47;;;;;;;;;;5053711;28;20221;-36
2022/10/12 03:59:03;;;;;;;16.67;7.63;;;;;;;;;;5065782;28;20205;-40
2022/10/12 04:01:31;;;;;;;14.40;8.00;;;;;;;;;;5070104;28;20217;-34
2022/10/12 04:03:59;;;;;;;9.00;6.27;;;;;;;;;;5064329;28;20274;-38
2022/10/12 04:06:26;;;;;;;10.60;7.37;;;;;;;;;;5067559;28;20208;-36
2022/10/12 04:08:53;;;;;;;11.93;7.07;;;;;;;;;;5073548;28;20212;-37
2022/10/12 04:11:20;;;;;;;15.00;7.33;;;;;;;;;;5067666;28;20230;-38
2022/10/12 04:13:47;;;;;;;10.20;6.23;;;;;;;;;;5067212;28;20268;-36
2022/10/12 04:16:15;;;;;;;11.30;6.37;;;;;;;;;;5073314;28;20217;-36
2022/10/12 04:18:43;;;;;;;14.87;8.10;;;;;;;;;;5069087;28;20276;-40
2022/10/12 04:21:12;;;;;;;13.13;6.80;;;;;;;;;;5069024;28;20293;-39
2022/10/12 04:23:40;;;;;;;10.23;6.53;;;;;;;;;;5074069;28;20201;-35
2022/10/12 04:26:07;;;;;;;9.37;6.80;;;;;;;;;;5053646;28;20206;-37
2022/10/12 04:28:34;;;;;;;8.97;7.37;;;;;;;;;;5065221;28;20210;-41
2022/10/12 04:31:34;;;;;;;8.50;6.60;;;;;;;;;;5073499;28;20225;-35
2022/10/12 04:34:02;;;;;;;15.73;7.30;;;;;;;;;;5067155;28;20205;-39
2022/10/12 04:36:30;;;;;;;11.43;7.10;;;;;;;;;;5072461;28;20235;-37
2022/10/12 04:38:57;;;;;;;10.13;7.70;;;;;;;;;;5073439;28;20211;-37
2022/10/12 04:41:24;;;;;;;10.83;6.87;;;;;;;;;;5064531;28;20222;-39
2022/10/12 04:43:53;;;;;;;9.83;6.60;;;;;;;;;;5064393;28;20271;-41
2022/10/12 04:46:20;;;;;;;12.47;7.30;;;;;;;;;;5072643;28;20197;-38
2022/10/12 04:48:47;;;;;;;7.57;5.83;;;;;;;;;;5065996;28;20213;-39
2022/10/12 04:51:16;;;;;;;8.90;7.10;;;;;;;;;;5072779;28;20226;-40
2022/10/12 04:53:43;;;;;;;8.00;6.60;;;;;;;;;;5072859;28;20212;-42
2022/10/12 04:56:10;;;;;;;16.00;7.23;;;;;;;;;;5068319;28;20206;-38
2022/10/12 04:58:37;;;;;;;10.27;7.83;;;;;;;;;;5071288;28;20201;-44
2022/10/12 05:01:04;;;;;;;12.27;7.63;;;;;;;;;;5072273;28;20225;-37
2022/10/12 05:03:43;;;;;;;10.30;7.47;;;;;;;;;;5068988;28;20205;-37
2022/10/12 05:06:10;;;;;;;9.87;6.97;;;;;;;;;;5067354;28;20354;-35
2022/10/12 05:08:38;;;;;;;14.40;7.40;;;;;;;;;;5071902;28;20307;-41
2022/10/12 05:11:06;;;;;;;14.53;6.77;;;;;;;;;;5067268;28;20241;-36
2022/10/12 05:13:33;;;;;;;12.37;7.90;;;;;;;;;;5072177;28;20205;-36
2022/10/12 05:16:00;;;;;;;14.27;7.70;;;;;;;;;;5072461;28;20210;-38
2022/10/12 05:18:27;;;;;;;23.33;8.93;;;;;;;;;;5061916;28;20198;-37
2022/10/12 05:20:54;;;;;;;12.27;7.73;;;;;;;;;;5067062;28;20310;-37
2022/10/12 05:23:21;;;;;;;10.70;7.80;;;;;;;;;;5072101;28;20201;-43
2022/10/12 05:25:50;;;;;;;9.80;7.60;;;;;;;;;;5072225;28;20211;-37
2022/10/12 05:28:17;;;;;;;11.97;7.37;;;;;;;;;;5064819;28;20229;-32
2022/10/12 05:30:44;;;;;;;16.00;8.90;;;;;;;;;;5073238;28;20223;-38
2022/10/12 05:33:11;;;;;;;12.23;8.60;;;;;;;;;;5065932;28;20205;-35
2022/10/12 05:35:39;;;;;;;16.50;9.33;;;;;;;;;;5071783;28;20201;-39
2022/10/12 05:38:06;;;;;;;13.33;8.37;;;;;;;;;;5120170;22;20302;-32
2022/10/12 05:40:33;;;;;;;13.07;7.73;;;;;;;;;;5053378;28;20283;-33
2022/10/12 05:43:03;;;;;;;11.07;7.97;;;;;;;;;;5038107;28;20207;-33
2022/10/12 05:45:30;;;;;;;17.97;8.87;;;;;;;;;;5049735;28;20206;-33
2022/10/12 05:47:58;;;;;;;14.77;8.43;;;;;;;;;;5047699;28;20202;-32
2022/10/12 05:50:25;;;;;;;14.33;8.60;;;;;;;;;;5043608;28;20313;-31
2022/10/12 05:52:52;;;;;;;18.47;9.27;;;;;;;;;;5045903;28;20203;-33
2022/10/12 05:55:20;;;;;;;13.57;9.07;;;;;;;;;;5053250;28;20210;-33
2022/10/12 05:57:48;;;;;;;12.70;7.47;;;;;;;;;;5040186;28;20219;-34
2022/10/12 06:00:17;;;;;;;13.10;7.30;;;;;;;;;;5047095;28;20226;-31
2022/10/12 06:02:44;;;;;;;13.20;8.50;;;;;;;;;;5051221;28;20228;-34
2022/10/12 06:05:11;;;;;;;12.70;8.93;;;;;;;;;;5043052;28;20242;-30
2022/10/12 06:07:39;;;;;;;15.47;9.03;;;;;;;;;;5043696;28;20196;-32
2022/10/12 06:10:07;;;;;;;14.60;9.43;;;;;;;;;;5043800;28;20222;-32
2022/10/12 06:12:34;;;;;;;13.50;10.03;;;;;;;;;;5051082;28;20234;-33
2022/10/12 06:15:01;;;;;;;14.20;9.33;;;;;;;;;;5053158;28;20293;-30
2022/10/12 06:17:30;;;;;;;16.17;10.63;;;;;;;;;;5040448;28;20283;-33
2022/10/12 06:19:57;;;;;;;16.13;10.57;;;;;;;;;;5042866;28;20288;-32
2022/10/12 06:22:24;;;;;;;15.63;9.67;;;;;;;;;;5035948;28;20281;-33
2022/10/12 06:24:51;;;;;;;13.03;9.37;;;;;;;;;;5035733;28;20269;-32
2022/10/12 06:27:19;;;;;;;14.00;9.37;;;;;;;;;;5050287;28;20209;-33
2022/10/12 06:29:47;;;;;;;16.80;9.73;;;;;;;;;;5046481;28;20226;-34
2022/10/12 06:32:15;;;;;;;12.37;10.47;;;;;;;;;;5034484;28;20218;-31
2022/10/12 06:34:44;;;;;;;14.87;9.40;;;;;;;;;;5037744;28;20221;-33
2022/10/12 06:37:11;;;;;;;10.43;7.60;;;;;;;;;;5054046;28;20234;-35
2022/10/12 06:39:38;;;;;;;11.97;9.50;;;;;;;;;;5054266;28;20240;-32
2022/10/12 06:42:07;;;;;;;12.30;8.70;;;;;;;;;;5051817;28;20305;-35
2022/10/12 06:44:34;;;;;;;12.57;8.77;;;;;;;;;;5046267;28;20237;-34
2022/10/12 06:47:01;;;;;;;13.97;9.13;;;;;;;;;;5044607;28;20204;-31
2022/10/12 06:49:28;;;;;;;13.10;8.93;;;;;;;;;;5036921;28;20211;-33
2022/10/12 06:51:57;;;;;;;9.27;7.80;;;;;;;;;;5044654;28;20202;-33
2022/10/12 06:54:24;;;;;;;11.67;9.13;;;;;;;;;;5054936;28;20210;-35
2022/10/12 06:56:53;;;;;;;12.97;9.57;;;;;;;;;;5048381;28;20206;-31
2022/10/12 06:59:21;;;;;;;12.80;9.43;;;;;;;;;;5039241;28;20204;-34
2022/10/12 07:01:49;;;;;;;16.30;9.30;;;;;;;;;;5053300;28;20198;-34
2022/10/12 07:04:16;;;;;;;17.00;10.37;;;;;;;;;;5042950;28;20226;-33
2022/10/12 07:06:44;;;;;;;10.77;9.13;;;;;;;;;;5043688;28;20253;-32
2022/10/12 07:09:13;;;;;;;12.57;8.80;;;;;;;;;;5054130;28;20210;-34
2022/10/12 07:11:40;;;;;;;10.73;8.80;;;;;;;;;;5051231;28;20230;-30
2022/10/12 07:14:07;;;;;;;13.23;9.40;;;;;;;;;;5054436;28;20237;-33
2022/10/12 07:16:35;;;;;;;14.20;9.43;;;;;;;;;;5037206;28;20238;-35
2022/10/12 07:19:02;;;;;;;11.60;8.73;;;;;;;;;;5037736;28;20227;-33
2022/10/12 07:21:30;;;;;;;13.60;9.00;;;;;;;;;;5039025;28;20326;-30
2022/10/12 07:23:57;;;;;;;10.13;8.53;;;;;;;;;;5052323;28;20246;-31
2022/10/12 07:26:26;;;;;;;8.90;7.33;;;;;;;;;;5053691;28;20199;-32
2022/10/12 07:28:53;;;;;;;32.27;20.53;;;;;;;;;;5053344;28;20205;-33
2022/10/12 07:31:20;;;;;;;14.13;10.23;;;;;;;;;;5044589;28;20231;-33
2022/10/12 07:33:47;;;;;;;12.50;8.57;;;;;;;;;;5041954;28;20207;-35
2022/10/12 07:36:14;;;;;;;10.53;8.97;;;;;;;;;;5038286;28;20294;-30
2022/10/12 07:38:43;;;;;;;16.90;10.57;;;;;;;;;;5033333;28;20225;-31
2022/10/12 07:41:11;;;;;;;11.37;8.43;;;;;;;;;;5036974;28;20226;-30
2022/10/12 07:43:39;;;;;;;12.53;8.77;;;;;;;;;;5051876;28;20206;-31
2022/10/12 07:46:07;;;;;;;12.63;9.33;;;;;;;;;;5041446;28;20210;-33
2022/10/12 07:48:34;;;;;;;15.40;10.60;;;;;;;;;;5044665;28;20211;-32
2022/10/12 07:51:04;;;;;;;15.97;10.43;;;;;;;;;;5036435;28;20308;-34
2022/10/12 07:53:31;;;;;;;14.50;10.60;;;;;;;;;;5039778;28;20256;-35
2022/10/12 07:56:00;;;;;;;13.27;10.10;;;;;;;;;;5046999;28;20234;-32
2022/10/12 07:58:27;;;;;;;16.10;12.47;;;;;;;;;;5035076;28;20222;-31
2022/10/12 08:00:56;;;;;;;16.80;11.80;;;;;;;;;;5031309;28;20314;-30
2022/10/12 08:03:24;;;;;;;13.30;10.80;;;;;;;;;;5039145;28;20207;-33
2022/10/12 08:05:51;;;;;;;20.13;12.73;;;;;;;;;;5046079;28;20211;-29
2022/10/12 08:08:18;;;;;;;20.07;12.90;;;;;;;;;;5053108;28;20290;-35
2022/10/12 08:10:49;;;;;;;14.83;11.47;;;;;;;;;;5038737;28;20305;-33
2022/10/12 08:13:16;;;;;;;16.87;12.00;;;;;;;;;;5041066;28;20199;-31
2022/10/12 08:15:48;;;;;;;16.10;11.70;;;;;;;;;;5042212;28;20326;-33
2022/10/12 08:18:17;;;;;;;18.40;11.77;;;;;;;;;;5043073;28;20218;-35
2022/10/12 08:20:45;;;;;;;20.87;12.20;;;;;;;;;;5045102;28;20230;-33
2022/10/12 08:23:12;;;;;;;18.10;11.93;;;;;;;;;;5051428;28;20234;-30
2022/10/12 08:28:08;;;;;;;22.90;12.60;;;;;;;;;;5047594;28;20215;-42
2022/10/12 08:30:35;;;;;;;18.53;13.17;;;;;;;;;;5042280;28;20223;-36
2022/10/12 08:33:02;;;;;;;16.27;11.90;;;;;;;;;;5034401;28;20201;-40
2022/10/12 08:35:31;;;;;;;17.70;12.20;;;;;;;;;;5036019;28;20350;-39
2022/10/12 08:37:58;;;;;;;15.17;12.43;;;;;;;;;;5049593;28;20219;-37
2022/10/12 08:40:29;;;;;;;19.63;13.17;;;;;;;;;;5050096;28;20233;-43
2022/10/12 08:43:02;;;;;;;17.43;12.97;;;;;;;;;;5036573;28;20202;-42
2022/10/12 08:45:36;;;;;;;21.67;12.87;;;;;;;;;;5045894;28;20211;-38
2022/10/12 08:48:07;;;;;;;20.80;12.73;;;;;;;;;;5042328;28;20209;-39
2022/10/12 08:50:38;;;;;;;24.53;13.63;;;;;;;;;;5048826;28;20222;-45
2022/10/12 08:53:09;;;;;;;21.70;13.27;;;;;;;;;;5043551;28;20230;-38
2022/10/12 08:55:41;;;;;;;19.73;12.47;;;;;;;;;;5043560;28;20637;-41
2022/10/12 08:58:14;;;;;;;22.37;13.30;;;;;;;;;;5044679;28;20231;-37
2022/10/12 09:00:42;;;;;;;21.73;14.10;;;;;;;;;;5037240;28;20219;-38
2022/10/12 09:03:14;;;;;;;21.03;14.33;;;;;;;;;;5030102;28;20278;-40
2022/10/12 09:05:45;;;;;;;19.37;12.43;;;;;;;;;;5046456;28;20257;-40
2022/10/12 09:08:20;;;;;;;22.40;12.80;;;;;;;;;;5050778;28;20206;-39
2022/10/12 09:10:52;;;;;;;20.33;13.57;;;;;;;;;;5051123;28;20229;-39
2022/10/12 09:13:24;;;;;;;22.37;13.73;;;;;;;;;;5040186;28;20207;-39
2022/10/12 09:15:53;;;;;;;19.90;14.73;;;;;;;;;;5041433;28;20253;-43
2022/10/12 09:18:24;;;;;;;21.23;13.37;;;;;;;;;;5041986;28;20309;-36
2022/10/12 09:20:53;;;;;;;20.37;13.10;;;;;;;;;;5046023;28;20225;-39
2022/10/12 09:23:25;;;;;;;19.50;12.93;;;;;;;;;;5047204;28;20206;-40
2022/10/12 09:25:53;;;;;;;19.67;13.53;;;;;;;;;;5038429;28;20199;-39
2022/10/12 09:28:23;;;;;;;20.70;13.30;;;;;;;;;;5041873;28;20198;-39
2022/10/12 09:31:00;;;;;;;21.93;14.00;;;;;;;;;;5040419;28;20307;-37
2022/10/12 09:33:28;;;;;;;22.40;13.00;;;;;;;;;;5043304;28;20209;-34
2022/10/12 09:35:57;;;;;;;20.00;13.03;;;;;;;;;;5042428;28;20232;-41
2022/10/12 09:38:25;;;;;;;20.07;13.00;;;;;;;;;;5029779;28;20225;-37
2022/10/12 09:40:52;;;;;;;18.03;12.43;;;;;;;;;;5033422;28;20221;-40
2022/10/12 09:45:48;;;;;;;16.47;11.33;;;;;;;;;;5060096;28;20217;-37
2022/10/12 09:48:17;;;;;;;16.43;11.50;;;;;;;;;;5061869;28;20244;-43
2022/10/12 09:50:46;;;;;;;19.70;12.40;;;;;;;;;;5069064;28;20253;-39
2022/10/12 09:53:16;;;;;;;14.53;9.90;;;;;;;;;;5069191;28;20258;-40
2022/10/12 09:55:52;;;;;;;14.27;10.17;;;;;;;;;;5067386;28;20481;-42
2022/10/12 09:58:20;;;;;;;16.47;10.10;;;;;;;;;;5058830;28;20233;-39
2022/10/12 10:01:08;;;;;;;17.07;11.03;;;;;;;;;;5068205;28;20221;-41
2022/10/12 10:03:35;;;;;;;17.00;10.60;;;;;;;;;;5063810;28;20212;-40
2022/10/12 10:06:05;;;;;;;16.50;11.23;;;;;;;;;;5068455;28;20199;-45
2022/10/12 10:08:39;;;;;;;13.07;9.93;;;;;;;;;;5068713;28;20322;-37
2022/10/12 10:11:14;;;;;;;16.53;10.17;;;;;;;;;;5066308;28;20232;-43
2022/10/12 10:13:47;;;;;;;16.67;11.17;;;;;;;;;;5067751;28;20206;-44
2022/10/12 10:16:15;;;;;;;16.30;10.13;;;;;;;;;;5069794;28;20200;-41
2022/10/12 10:18:43;;;;;;;13.57;10.20;;;;;;;;;;5059840;28;20229;-43
2022/10/12 10:21:13;;;;;;;16.03;10.40;;;;;;;;;;5067732;28;20220;-45
2022/10/12 10:23:44;;;;;;;13.43;10.50;;;;;;;;;;5072661;28;20198;-41
2022/10/12 10:26:13;;;;;;;15.37;10.10;;;;;;;;;;5065136;28;20208;-40
2022/10/12 10:28:41;;;;;;;17.60;9.40;;;;;;;;;;5069152;28;20202;-45
2022/10/12 10:31:20;;;;;;;14.13;9.47;;;;;;;;;;5073185;28;20225;-42
2022/10/12 10:34:03;;;;;;;14.57;10.50;;;;;;;;;;5061657;28;20296;-42
2022/10/12 10:36:30;;;;;;;16.93;10.27;;;;;;;;;;5068475;28;20647;-40
2022/10/12 10:39:01;;;;;;;14.50;9.43;;;;;;;;;;5072446;28;20217;-43
2022/10/12 10:41:30;;;;;;;13.57;9.43;;;;;;;;;;5068683;28;20228;-43
2022/10/12 10:43:57;;;;;;;15.77;10.53;;;;;;;;;;5070522;28;20216;-38
2022/10/12 10:46:25;;;;;;;18.23;9.90;;;;;;;;;;5073618;28;20211;-42
2022/10/12 10:48:55;;;;;;;20.13;10.67;;;;;;;;;;5067019;28;20201;-43
2022/10/12 10:51:22;;;;;;;15.43;9.73;;;;;;;;;;5068701;28;20229;-44
2022/10/12 10:53:50;;;;;;;12.67;9.43;;;;;;;;;;5072378;28;20205;-38
2022/10/12 10:56:21;;;;;;;15.10;9.83;;;;;;;;;;5066090;28;20209;-40
2022/10/12 10:58:49;;;;;;;17.60;10.40;;;;;;;;;;5057260;28;20228;-44
2022/10/12 11:01:20;;;;;;;15.60;9.87;;;;;;;;;;5071745;28;20237;-42
2022/10/12 11:03:51;;;;;;;13.57;9.37;;;;;;;;;;5062760;28;20289;-43
2022/10/12 11:06:21;;;;;;;15.67;9.70;;;;;;;;;;5061385;28;20209;-44
2022/10/12 11:08:50;;;;;;;14.93;9.40;;;;;;;;;;5069756;28;20200;-42
2022/10/12 11:11:20;;;;;;;14.63;9.50;;;;;;;;;;5056881;28;20257;-43
2022/10/12 11:13:52;;;;;;;16.00;10.40;;;;;;;;;;5057001;28;20208;-43
2022/10/12 11:16:26;;;;;;;14.20;9.77;;;;;;;;;;5070794;28;20201;-41
2022/10/12 11:18:54;;;;;;;16.80;9.00;;;;;;;;;;5062965;28;20321;-42
2022/10/12 11:21:23;;;;;;;19.27;10.27;;;;;;;;;;5066290;28;20221;-44
2022/10/12 11:23:52;;;;;;;14.07;9.30;;;;;;;;;;5070924;28;20207;-42
2022/10/12 11:26:23;;;;;;;17.40;9.97;;;;;;;;;;5057004;28;20198;-38
2022/10/12 11:28:53;;;;;;;13.30;9.97;;;;;;;;;;5062292;28;20213;-38
2022/10/12 11:31:23;;;;;;;18.87;10.33;;;;;;;;;;5070611;28;20225;-44
2022/10/12 11:33:52;;;;;;;15.00;9.30;;;;;;;;;;5064681;28;20709;-40
2022/10/12 11:36:22;;;;;;;16.13;9.20;;;;;;;;;;5065360;28;20209;-43
2022/10/12 11:38:51;;;;;;;16.10;9.63;;;;;;;;;;5070428;28;20589;-42
2022/10/12 11:41:21;;;;;;;15.87;10.07;;;;;;;;;;5063969;28;20301;-44
2022/10/12 11:43:51;;;;;;;18.63;10.13;;;;;;;;;;5068485;28;20223;-40
2022/10/12 11:46:22;;;;;;;15.77;10.70;;;;;;;;;;5070480;28;20204;-41
2022/10/12 11:48:53;;;;;;;17.97;10.73;;;;;;;;;;5061203;28;20236;-42
2022/10/12 11:51:20;;;;;;;16.23;10.60;;;;;;;;;;5070394;28;20257;-42
2022/10/12 11:53:53;;;;;;;17.03;11.33;;;;;;;;;;5070119;28;20346;-42
2022/10/12 11:56:23;;;;;;;16.33;10.63;;;;;;;;;;5062966;28;20289;-45
2022/10/12 11:58:52;;;;;;;14.50;10.00;;;;;;;;;;5061723;28;20217;-42
2022/10/12 12:01:28;;;;;;;14.63;9.33;;;;;;;;;;5070269;28;20563;-39
2022/10/12 12:04:06;;;;;;;16.73;10.73;;;;;;;;;;5061164;28;20204;-42
2022/10/12 12:06:53;;;;;;;12.43;9.20;;;;;;;;;;5066403;28;20201;-41
2022/10/12 12:09:31;;;;;;;19.83;10.77;;;;;;;;;;5069651;28;20197;-45
2022/10/12 12:12:16;;;;;;;15.43;9.17;;;;;;;;;;5062255;28;20204;-39
2022/10/12 12:14:48;;;;;;;13.83;9.97;;;;;;;;;;5067638;28;20208;-39
2022/10/12 12:17:21;;;;;;;17.07;10.07;;;;;;;;;;5066104;28;20639;-43
2022/10/12 12:19:49;;;;;;;15.47;9.63;;;;;;;;;;5057190;28;20241;-43
2022/10/12 12:22:23;;;;;;;14.10;9.63;;;;;;;;;;5069341;28;20209;-39
2022/10/12 12:24:56;;;;;;;13.90;8.90;;;;;;;;;;5064513;28;20212;-44
2022/10/12 12:27:27;;;;;;;14.60;8.90;;;;;;;;;;5064587;28;20271;-43
2022/10/12 12:29:56;;;;;;;16.50;8.97;;;;;;;;;;5069320;28;20233;-41
2022/10/12 12:32:25;;;;;;;15.30;8.90;;;;;;;;;;5065210;28;20296;-42
2022/10/12 12:34:54;;;;;;;13.80;8.17;;;;;;;;;;5062979;28;20217;-44
2022/10/12 12:37:23;;;;;;;14.53;8.90;;;;;;;;;;5069364;28;20678;-42
2022/10/12 12:39:53;;;;;;;13.00;8.10;;;;;;;;;;5058972;28;20214;-40
2022/10/12 12:42:22;;;;;;;12.33;7.57;;;;;;;;;;5058464;28;20205;-42
2022/10/12 12:44:49;;;;;;;15.70;9.03;;;;;;;;;;5068431;28;20581;-40
2022/10/12 12:47:22;;;;;;;13.00;8.90;;;;;;;;;;5060982;28;20209;-41
2022/10/12 12:49:52;;;;;;;12.30;8.23;;;;;;;;;;5061929;28;20227;-41
2022/10/12 12:52:22;;;;;;;14.23;8.30;;;;;;;;;;5068587;28;20469;-40
2022/10/12 12:55:04;;;;;;;14.70;8.17;;;;;;;;;;5068732;28;20198;-38
2022/10/12 12:57:38;;;;;;;17.33;8.30;;;;;;;;;;5051200;28;20296;-41
2022/10/12 13:00:13;;;;;;;14.03;9.17;;;;;;;;;;5061749;28;20240;-42
2022/10/12 13:02:59;;;;;;;13.47;8.00;;;;;;;;;;5066679;28;20201;-40
2022/10/12 13:05:39;;;;;;;17.13;8.83;;;;;;;;;;5060220;28;20201;-38
2022/10/12 13:08:15;;;;;;;14.77;8.70;;;;;;;;;;5068963;28;20208;-40
2022/10/12 13:10:53;;;;;;;14.83;8.20;;;;;;;;;;5063481;28;20324;-45
2022/10/12 13:13:41;;;;;;;11.57;7.67;;;;;;;;;;5068950;28;20207;-40
2022/10/12 13:16:16;;;;;;;15.50;7.93;;;;;;;;;;5045399;28;20216;-44
2022/10/12 13:18:52;;;;;;;13.43;8.50;;;;;;;;;;5051003;28;20206;-40
2022/10/12 13:21:23;;;;;;;12.73;7.73;;;;;;;;;;5063969;28;20252;-41
2022/10/12 13:23:51;;;;;;;15.53;8.73;;;;;;;;;;5066648;28;20201;-36
2022/10/12 13:26:20;;;;;;;16.47;8.87;;;;;;;;;;5058501;28;20205;-43
2022/10/12 13:28:49;;;;;;;11.93;8.53;;;;;;;;;;5061456;28;20556;-44
2022/10/12 13:31:18;;;;;;;14.57;8.17;;;;;;;;;;5067250;28;20221;-41
2022/10/12 13:33:49;;;;;;;14.13;8.50;;;;;;;;;;5057461;28;20209;-43
2022/10/12 13:36:18;;;;;;;13.07;8.07;;;;;;;;;;5057565;28;20201;-38
2022/10/12 13:38:47;;;;;;;12.77;8.43;;;;;;;;;;5066983;28;20211;-38
2022/10/12 13:41:16;;;;;;;12.57;7.40;;;;;;;;;;5062449;28;20316;-43
2022/10/12 13:43:44;;;;;;;14.37;7.87;;;;;;;;;;5068275;28;20221;-44
2022/10/12 13:46:12;;;;;;;13.53;7.77;;;;;;;;;;5068443;28;20244;-40
2022/10/12 13:48:40;;;;;;;13.97;8.20;;;;;;;;;;5057733;28;20205;-40
2022/10/12 13:51:20;;;;;;;12.20;7.40;;;;;;;;;;5066530;28;20217;-43
2022/10/12 13:53:49;;;;;;;13.30;7.87;;;;;;;;;;5070099;28;20205;-41
2022/10/12 13:56:18;;;;;;;13.20;7.97;;;;;;;;;;5073028;28;20201;-41
2022/10/12 13:58:45;;;;;;;12.77;7.57;;;;;;;;;;5069441;28;20211;-42
2022/10/12 14:01:13;;;;;;;14.10;8.07;;;;;;;;;;5066883;28;20307;-43
2022/10/12 14:03:40;;;;;;;15.47;8.17;;;;;;;;;;5061696;28;20212;-38
2022/10/12 14:06:23;;;;;;;9.07;6.90;;;;;;;;;;5067187;28;20200;-41
2022/10/12 14:08:52;;;;;;;14.43;7.30;;;;;;;;;;5072169;28;20236;-41
2022/10/12 14:11:19;;;;;;;11.77;7.40;;;;;;;;;;5065541;28;20232;-41
2022/10/12 14:13:47;;;;;;;14.17;8.17;;;;;;;;;;5058313;28;20550;-44
2022/10/12 14:16:14;;;;;;;12.53;7.60;;;;;;;;;;5067919;28;20211;-43
2022/10/12 14:18:42;;;;;;;11.40;7.27;;;;;;;;;;5065071;28;20209;-40
2022/10/12 14:21:16;;;;;;;15.97;7.93;;;;;;;;;;5072658;28;20339;-43
2022/10/12 14:23:45;;;;;;;16.47;7.00;;;;;;;;;;5069919;28;20201;-39
2022/10/12 14:26:22;;;;;;;12.33;8.17;;;;;;;;;;5063214;28;20213;-42
2022/10/12 14:28:49;;;;;;;15.23;7.50;;;;;;;;;;5069460;28;20298;-37
2022/10/12 14:31:16;;;;;;;13.53;7.50;;;;;;;;;;5070846;28;20714;-43
2022/10/12 14:33:44;;;;;;;11.93;7.30;;;;;;;;;;5056670;28;20267;-41
2022/10/12 14:36:15;;;;;;;9.63;6.73;;;;;;;;;;5067614;28;20205;-40
2022/10/12 14:38:42;;;;;;;11.73;7.33;;;;;;;;;;5070471;28;20286;-40
2022/10/12 14:41:28;;;;;;;14.00;7.87;;;;;;;;;;5070732;28;20229;-43
2022/10/12 14:44:07;;;;;;;13.63;8.47;;;;;;;;;;5065950;28;20217;-37
2022/10/12 14:46:34;;;;;;;12.23;7.03;;;;;;;;;;5071259;28;20201;-40
2022/10/12 14:49:01;;;;;;;12.80;8.20;;;;;;;;;;5064086;28;20208;-40